Time;durP1;ratioP1;P1;durP2;ratioP2;P2;SDS_P1;SDS_P2;PMS_P1;PMS_P2;Temp;Humidity;BMP_temperature;BMP_pressure;BME280_temperature;BME280_humidity;BME280_pressure;Samples;Min_cycle;Max_cycle;Signal;HPM_P1;HPM_P2
2023/06/27 00:01:39;;;;;;;1.75;1.20;;;;;;;;;;4980156;28;20022;-80
2023/06/27 00:04:05;;;;;;;4.50;1.20;;;;;;;;;;4966462;28;20023;-81
2023/06/27 00:06:31;;;;;;;5.07;1.23;;;;;;;;;;4958071;28;20055;-82
2023/06/27 00:08:56;;;;;;;6.57;1.30;;;;;;;;;;4967444;28;20027;-81
2023/06/27 00:11:21;;;;;;;2.75;1.20;;;;;;;;;;4964739;28;20058;-82
2023/06/27 00:13:48;;;;;;;3.20;1.17;;;;;;;;;;4970205;28;20022;-83
2023/06/27 00:16:13;;;;;;;4.75;1.50;;;;;;;;;;4961178;28;20031;-83
2023/06/27 00:18:40;;;;;;;5.18;1.30;;;;;;;;;;4960871;28;20036;-81
2023/06/27 00:21:06;;;;;;;6.68;1.42;;;;;;;;;;4966244;28;20023;-82
2023/06/27 00:23:34;;;;;;;4.50;1.45;;;;;;;;;;4972054;28;20016;-81
2023/06/27 00:26:02;;;;;;;4.13;1.50;;;;;;;;;;4960601;28;20095;-82
2023/06/27 00:28:27;;;;;;;4.80;1.35;;;;;;;;;;4959715;28;20026;-81
2023/06/27 00:30:53;;;;;;;8.75;1.50;;;;;;;;;;4957864;28;20026;-81
2023/06/27 00:33:18;;;;;;;4.82;1.42;;;;;;;;;;4969123;28;20022;-81
2023/06/27 00:35:43;;;;;;;5.43;1.50;;;;;;;;;;4960540;28;20038;-83
2023/06/27 00:38:09;;;;;;;2.45;1.45;;;;;;;;;;4961248;28;20105;-82
2023/06/27 00:40:34;;;;;;;5.65;1.67;;;;;;;;;;4970040;28;20031;-81
2023/06/27 00:42:59;;;;;;;2.50;1.10;;;;;;;;;;4943891;28;20032;-80
2023/06/27 00:45:25;;;;;;;6.55;1.65;;;;;;;;;;4955964;28;20031;-82
2023/06/27 00:47:53;;;;;;;8.23;1.65;;;;;;;;;;4955670;28;20031;-82
2023/06/27 00:50:21;;;;;;;2.30;1.40;;;;;;;;;;4958570;28;20050;-83
2023/06/27 00:52:47;;;;;;;8.68;1.25;;;;;;;;;;4958552;28;20038;-82
2023/06/27 00:55:12;;;;;;;3.40;1.38;;;;;;;;;;4966223;28;20045;-82
2023/06/27 00:57:40;;;;;;;2.97;1.55;;;;;;;;;;4955999;28;20023;-83
2023/06/27 01:00:09;;;;;;;3.63;1.55;;;;;;;;;;4954847;28;20107;-81
2023/06/27 01:02:35;;;;;;;4.32;1.40;;;;;;;;;;4969143;28;20038;-82
2023/06/27 01:05:01;;;;;;;3.10;1.45;;;;;;;;;;4963192;28;20114;-84
2023/06/27 01:07:34;;;;;;;5.63;1.50;;;;;;;;;;4956509;28;20047;-82
2023/06/27 01:10:05;;;;;;;2.15;1.25;;;;;;;;;;4968002;28;20031;-83
2023/06/27 01:13:02;;;;;;;3.58;1.27;;;;;;;;;;4958141;28;20027;-82
2023/06/27 01:15:28;;;;;;;4.53;1.50;;;;;;;;;;4951720;28;20106;-83
2023/06/27 01:17:56;;;;;;;2.38;1.50;;;;;;;;;;4957530;28;20067;-82
2023/06/27 01:20:23;;;;;;;3.70;1.60;;;;;;;;;;4933724;28;20016;-81
2023/06/27 01:23:12;;;;;;;3.55;1.20;;;;;;;;;;4957775;28;20464;-83
2023/06/27 01:25:37;;;;;;;4.45;1.73;;;;;;;;;;4963385;28;20482;-83
2023/06/27 01:28:04;;;;;;;3.08;1.75;;;;;;;;;;4962652;28;20031;-82
2023/06/27 01:30:33;;;;;;;4.63;1.30;;;;;;;;;;4952187;28;20051;-82
2023/06/27 01:33:05;;;;;;;3.83;1.70;;;;;;;;;;4956221;28;20027;-82
2023/06/27 01:35:50;;;;;;;3.60;1.42;;;;;;;;;;4949016;28;20030;-80
2023/06/27 01:38:24;;;;;;;3.55;1.67;;;;;;;;;;4945383;28;20179;-83
2023/06/27 01:40:53;;;;;;;8.13;2.05;;;;;;;;;;4964246;28;20059;-82
2023/06/27 01:43:21;;;;;;;2.72;1.42;;;;;;;;;;4951656;28;20038;-83
2023/06/27 01:45:46;;;;;;;6.80;1.80;;;;;;;;;;4964216;28;20042;-83
2023/06/27 01:48:12;;;;;;;6.55;1.60;;;;;;;;;;4958223;28;20023;-83
2023/06/27 01:50:38;;;;;;;6.97;2.00;;;;;;;;;;4943152;28;20033;-82
2023/06/27 01:53:03;;;;;;;4.38;1.73;;;;;;;;;;4959480;28;20474;-83
2023/06/27 01:55:29;;;;;;;2.25;1.30;;;;;;;;;;4961527;28;20030;-83
2023/06/27 01:57:55;;;;;;;4.10;1.50;;;;;;;;;;4971107;28;20024;-82
2023/06/27 02:00:20;;;;;;;6.28;1.77;;;;;;;;;;4947123;28;20034;-83
2023/06/27 02:02:46;;;;;;;3.88;1.40;;;;;;;;;;4956980;28;20738;-83
2023/06/27 02:05:11;;;;;;;5.68;1.75;;;;;;;;;;4945773;28;20477;-83
2023/06/27 02:07:36;;;;;;;2.92;1.48;;;;;;;;;;4959942;28;20028;-84
2023/06/27 02:10:02;;;;;;;6.07;1.77;;;;;;;;;;4959161;28;20092;-82
2023/06/27 02:12:27;;;;;;;7.13;1.60;;;;;;;;;;4956315;28;20079;-83
2023/06/27 02:14:53;;;;;;;2.92;1.98;;;;;;;;;;4948963;29;20027;-83
2023/06/27 02:17:19;;;;;;;4.03;1.55;;;;;;;;;;4957415;28;20034;-84
2023/06/27 02:19:44;;;;;;;4.93;1.45;;;;;;;;;;4957756;28;20026;-82
2023/06/27 02:22:10;;;;;;;3.55;1.30;;;;;;;;;;4959149;28;20019;-82
2023/06/27 02:24:35;;;;;;;7.72;2.00;;;;;;;;;;4954898;29;20539;-81
2023/06/27 02:27:00;;;;;;;9.82;1.65;;;;;;;;;;4954645;28;20362;-82
2023/06/27 02:29:26;;;;;;;4.95;1.60;;;;;;;;;;4956447;28;20022;-83
2023/06/27 02:31:51;;;;;;;5.50;2.08;;;;;;;;;;4941391;29;20042;-83
2023/06/27 02:34:16;;;;;;;5.85;1.42;;;;;;;;;;4958602;28;20034;-83
2023/06/27 02:36:42;;;;;;;3.72;1.30;;;;;;;;;;4945438;28;20042;-83
2023/06/27 02:39:08;;;;;;;3.10;1.42;;;;;;;;;;4964201;28;20081;-83
2023/06/27 02:41:33;;;;;;;6.38;1.35;;;;;;;;;;4953078;28;20064;-83
2023/06/27 02:43:58;;;;;;;4.40;1.50;;;;;;;;;;4943435;28;20038;-85
2023/06/27 02:46:24;;;;;;;2.17;1.52;;;;;;;;;;4962262;28;20026;-82
2023/06/27 02:48:49;;;;;;;2.55;1.40;;;;;;;;;;4960649;28;20450;-84
2023/06/27 02:51:14;;;;;;;3.65;1.35;;;;;;;;;;4962054;28;20425;-84
2023/06/27 02:53:40;;;;;;;3.72;1.63;;;;;;;;;;4964055;28;20620;-85
2023/06/27 02:56:07;;;;;;;3.15;1.52;;;;;;;;;;4960816;28;20110;-84
2023/06/27 02:58:33;;;;;;;4.03;1.52;;;;;;;;;;4954468;28;20494;-83
2023/06/27 03:00:59;;;;;;;3.80;2.42;;;;;;;;;;4936207;28;20482;-84
2023/06/27 03:03:25;;;;;;;4.00;1.60;;;;;;;;;;4951973;28;20075;-86
2023/06/27 03:05:51;;;;;;;2.80;1.38;;;;;;;;;;4935119;28;20038;-83
2023/06/27 03:08:16;;;;;;;2.85;1.30;;;;;;;;;;4963045;28;20054;-82
2023/06/27 03:10:42;;;;;;;2.80;1.30;;;;;;;;;;4962353;28;20519;-82
2023/06/27 03:13:07;;;;;;;3.83;1.33;;;;;;;;;;4954660;28;20031;-84
2023/06/27 03:15:32;;;;;;;5.88;1.42;;;;;;;;;;4952140;28;20050;-83
2023/06/27 03:17:58;;;;;;;4.40;1.40;;;;;;;;;;4955338;28;20023;-85
2023/06/27 03:20:23;;;;;;;4.22;1.77;;;;;;;;;;4971467;28;20023;-83
2023/06/27 03:22:48;;;;;;;4.72;1.42;;;;;;;;;;4968835;28;20023;-86
2023/06/27 03:25:14;;;;;;;4.40;1.50;;;;;;;;;;4948071;28;20054;-84
2023/06/27 03:27:39;;;;;;;2.13;1.60;;;;;;;;;;4954941;28;20019;-83
2023/06/27 03:30:07;;;;;;;4.85;1.50;;;;;;;;;;4960501;28;20466;-85
2023/06/27 03:32:33;;;;;;;3.20;1.35;;;;;;;;;;4954308;28;20148;-83
2023/06/27 03:34:58;;;;;;;4.93;1.35;;;;;;;;;;4937086;29;20032;-85
2023/06/27 03:37:23;;;;;;;2.55;1.30;;;;;;;;;;4957880;28;20062;-84
2023/06/27 03:39:49;;;;;;;4.72;1.25;;;;;;;;;;4959615;28;20082;-84
2023/06/27 03:42:16;;;;;;;3.78;1.65;;;;;;;;;;4964478;28;20031;-83
2023/06/27 03:44:41;;;;;;;2.75;1.60;;;;;;;;;;4958811;28;20035;-85
2023/06/27 03:47:07;;;;;;;3.60;1.73;;;;;;;;;;4955553;28;20165;-83
2023/06/27 03:49:32;;;;;;;3.30;1.45;;;;;;;;;;4967784;28;20015;-84
2023/06/27 03:51:57;;;;;;;4.28;1.55;;;;;;;;;;4961221;28;20048;-84
2023/06/27 03:54:23;;;;;;;3.05;1.17;;;;;;;;;;4953908;28;20028;-84
2023/06/27 03:56:48;;;;;;;3.13;1.25;;;;;;;;;;4955116;29;20532;-84
2023/06/27 03:59:14;;;;;;;2.95;1.42;;;;;;;;;;4955396;28;20551;-84
2023/06/27 04:01:41;;;;;;;3.90;1.60;;;;;;;;;;4963770;28;20055;-84
2023/06/27 04:04:07;;;;;;;9.15;1.70;;;;;;;;;;4959995;28;20412;-84
2023/06/27 04:06:32;;;;;;;2.60;1.35;;;;;;;;;;4953991;28;20019;-84
2023/06/27 04:08:57;;;;;;;5.18;1.42;;;;;;;;;;4962528;28;20031;-85
2023/06/27 04:11:23;;;;;;;5.82;1.95;;;;;;;;;;4955033;28;20033;-83
2023/06/27 04:13:48;;;;;;;7.93;1.85;;;;;;;;;;4966735;28;20027;-84
2023/06/27 04:16:14;;;;;;;6.60;1.40;;;;;;;;;;4948032;28;20048;-84
2023/06/27 04:18:40;;;;;;;3.90;1.55;;;;;;;;;;4960021;28;20031;-84
2023/06/27 04:21:06;;;;;;;6.30;1.50;;;;;;;;;;4948149;29;20023;-83
2023/06/27 04:23:31;;;;;;;2.53;1.45;;;;;;;;;;4960888;28;20056;-82
2023/06/27 04:26:02;;;;;;;4.20;1.60;;;;;;;;;;4976081;28;20074;-82
2023/06/27 04:28:29;;;;;;;1.98;1.30;;;;;;;;;;4968889;28;20130;-82
2023/06/27 04:30:54;;;;;;;4.80;1.52;;;;;;;;;;4975420;28;20024;-82
2023/06/27 04:33:19;;;;;;;3.15;1.77;;;;;;;;;;4964428;28;20066;-82
2023/06/27 04:35:46;;;;;;;5.30;1.60;;;;;;;;;;4965374;28;20038;-83
2023/06/27 04:38:14;;;;;;;1.67;1.38;;;;;;;;;;4965379;28;20031;-83
2023/06/27 04:40:41;;;;;;;6.05;1.58;;;;;;;;;;4969383;28;20015;-82
2023/06/27 04:43:07;;;;;;;3.08;1.70;;;;;;;;;;4980086;28;20019;-82
2023/06/27 04:45:32;;;;;;;10.88;2.08;;;;;;;;;;4966896;28;20034;-83
2023/06/27 04:47:58;;;;;;;2.42;1.23;;;;;;;;;;4969219;23;20141;-82
2023/06/27 04:50:23;;;;;;;9.45;1.92;;;;;;;;;;4959410;28;20031;-83
2023/06/27 04:52:48;;;;;;;7.70;1.83;;;;;;;;;;4966683;28;20065;-82
2023/06/27 04:55:15;;;;;;;10.68;2.13;;;;;;;;;;4958582;29;20037;-82
2023/06/27 04:57:41;;;;;;;6.38;1.70;;;;;;;;;;4940256;29;20029;-84
2023/06/27 05:00:09;;;;;;;5.07;1.88;;;;;;;;;;4954933;29;20102;-83
2023/06/27 05:02:34;;;;;;;9.70;1.90;;;;;;;;;;4943844;29;20438;-82
2023/06/27 05:05:00;;;;;;;4.75;1.65;;;;;;;;;;4949447;29;20024;-83
2023/06/27 05:07:25;;;;;;;7.53;1.60;;;;;;;;;;4940948;29;20039;-82
2023/06/27 05:09:50;;;;;;;10.00;1.75;;;;;;;;;;4940971;29;20027;-82
2023/06/27 05:12:16;;;;;;;1.83;1.55;;;;;;;;;;4948011;29;20020;-81
2023/06/27 05:14:41;;;;;;;3.00;2.22;;;;;;;;;;4941544;29;20122;-83
2023/06/27 05:17:06;;;;;;;8.75;1.90;;;;;;;;;;4945503;29;20048;-82
2023/06/27 05:19:32;;;;;;;5.85;1.63;;;;;;;;;;4956481;29;20094;-82
2023/06/27 05:21:57;;;;;;;4.03;1.77;;;;;;;;;;4953503;28;20047;-83
2023/06/27 05:24:23;;;;;;;5.63;1.60;;;;;;;;;;4950492;29;20020;-83
2023/06/27 05:26:48;;;;;;;3.15;1.67;;;;;;;;;;4957802;29;20035;-81
2023/06/27 05:29:14;;;;;;;4.15;1.50;;;;;;;;;;4947018;29;20047;-83
2023/06/27 05:31:40;;;;;;;2.17;1.30;;;;;;;;;;4959541;29;20020;-83
2023/06/27 05:34:06;;;;;;;5.68;1.60;;;;;;;;;;4946375;29;20032;-83
2023/06/27 05:36:31;;;;;;;9.18;1.52;;;;;;;;;;4951839;29;20506;-83
2023/06/27 05:38:57;;;;;;;6.85;1.73;;;;;;;;;;4951193;29;20031;-82
2023/06/27 05:41:23;;;;;;;6.55;1.88;;;;;;;;;;4949708;29;20126;-82
2023/06/27 05:43:48;;;;;;;11.05;1.73;;;;;;;;;;4960270;29;20019;-82
2023/06/27 05:46:13;;;;;;;9.18;2.08;;;;;;;;;;4953937;29;20035;-82
2023/06/27 05:48:39;;;;;;;5.70;1.80;;;;;;;;;;4943119;29;20011;-85
2023/06/27 05:51:05;;;;;;;3.90;1.80;;;;;;;;;;4961239;29;20068;-86
2023/06/27 05:53:30;;;;;;;6.43;1.65;;;;;;;;;;4947648;29;20030;-86
2023/06/27 05:55:55;;;;;;;7.32;1.65;;;;;;;;;;4961891;29;20399;-82
2023/06/27 05:58:24;;;;;;;7.88;2.00;;;;;;;;;;4949800;29;20208;-84
2023/06/27 06:00:50;;;;;;;5.03;1.67;;;;;;;;;;4948532;29;20050;-83
2023/06/27 06:03:18;;;;;;;5.43;1.65;;;;;;;;;;4944185;28;20020;-82
2023/06/27 06:05:43;;;;;;;4.15;1.80;;;;;;;;;;4946505;29;20027;-82
2023/06/27 06:08:09;;;;;;;3.03;1.30;;;;;;;;;;4928301;29;20046;-82
2023/06/27 06:10:34;;;;;;;3.40;1.67;;;;;;;;;;4952262;29;20481;-83
2023/06/27 06:12:59;;;;;;;2.97;1.25;;;;;;;;;;4940546;29;20110;-83
2023/06/27 06:15:25;;;;;;;9.65;1.58;;;;;;;;;;4922193;29;20028;-82
2023/06/27 06:17:50;;;;;;;9.43;1.70;;;;;;;;;;4950457;29;20079;-83
2023/06/27 06:20:15;;;;;;;5.25;1.42;;;;;;;;;;4957126;28;20054;-83
2023/06/27 06:22:41;;;;;;;2.10;1.27;;;;;;;;;;4948537;29;20034;-84
2023/06/27 06:25:07;;;;;;;3.40;1.33;;;;;;;;;;4946150;29;20019;-82
2023/06/27 06:27:32;;;;;;;1.95;1.48;;;;;;;;;;4944313;29;20597;-81
2023/06/27 06:29:57;;;;;;;3.75;1.63;;;;;;;;;;4932464;29;20159;-82
2023/06/27 06:32:23;;;;;;;2.78;1.40;;;;;;;;;;4948399;29;20031;-83
2023/06/27 06:34:48;;;;;;;4.63;1.35;;;;;;;;;;4939681;29;20054;-81
2023/06/27 06:37:14;;;;;;;5.18;1.52;;;;;;;;;;4949530;29;20034;-83
2023/06/27 06:39:41;;;;;;;3.05;1.42;;;;;;;;;;4945679;29;20046;-82
2023/06/27 06:42:11;;;;;;;3.67;1.40;;;;;;;;;;4943327;28;20083;-81
2023/06/27 06:44:36;;;;;;;4.65;1.38;;;;;;;;;;4927150;29;20063;-83
2023/06/27 06:47:02;;;;;;;4.40;1.40;;;;;;;;;;4947700;29;20031;-82
2023/06/27 06:49:27;;;;;;;1.58;1.20;;;;;;;;;;4951984;29;20038;-84
2023/06/27 06:51:53;;;;;;;2.15;1.25;;;;;;;;;;4950529;29;20026;-82
2023/06/27 06:54:18;;;;;;;3.92;1.58;;;;;;;;;;4944086;29;20398;-84
2023/06/27 06:56:44;;;;;;;4.10;1.30;;;;;;;;;;4946204;29;20063;-84
2023/06/27 06:59:09;;;;;;;1.50;1.20;;;;;;;;;;4955164;29;20027;-81
2023/06/27 07:01:34;;;;;;;3.20;1.60;;;;;;;;;;4931634;29;20054;-84
2023/06/27 07:04:00;;;;;;;3.10;1.15;;;;;;;;;;4937409;29;20046;-82
2023/06/27 07:06:25;;;;;;;3.38;1.38;;;;;;;;;;4941245;29;20043;-82
2023/06/27 07:08:52;;;;;;;2.83;1.58;;;;;;;;;;4949067;28;20020;-82
2023/06/27 07:11:17;;;;;;;3.10;1.20;;;;;;;;;;4939339;29;20051;-83
2023/06/27 07:13:43;;;;;;;2.83;1.48;;;;;;;;;;4931798;29;20028;-82
2023/06/27 07:16:08;;;;;;;2.60;1.50;;;;;;;;;;4926257;29;20402;-83
2023/06/27 07:18:33;;;;;;;3.38;1.33;;;;;;;;;;4948682;29;20023;-82
2023/06/27 07:20:59;;;;;;;2.05;1.50;;;;;;;;;;4942498;29;20035;-82
2023/06/27 07:23:24;;;;;;;8.60;1.63;;;;;;;;;;4940442;29;20121;-82
2023/06/27 07:25:49;;;;;;;4.90;1.95;;;;;;;;;;4942898;29;20072;-83
2023/06/27 07:28:16;;;;;;;4.68;1.50;;;;;;;;;;4939277;29;20024;-83
2023/06/27 07:30:45;;;;;;;3.45;1.30;;;;;;;;;;4941581;29;20030;-82
2023/06/27 07:33:11;;;;;;;3.17;1.52;;;;;;;;;;4947223;29;20043;-84
2023/06/27 07:35:36;;;;;;;2.95;1.50;;;;;;;;;;4944579;29;20417;-84
2023/06/27 07:38:02;;;;;;;7.88;1.60;;;;;;;;;;4948946;29;20060;-84
2023/06/27 07:40:27;;;;;;;3.25;1.23;;;;;;;;;;4950860;29;20031;-82
2023/06/27 07:42:53;;;;;;;6.57;1.48;;;;;;;;;;4953543;28;20028;-83
2023/06/27 07:45:18;;;;;;;4.78;1.30;;;;;;;;;;4950253;29;20083;-83
2023/06/27 07:47:44;;;;;;;3.03;1.10;;;;;;;;;;4940622;29;20032;-83
2023/06/27 07:50:09;;;;;;;4.75;1.40;;;;;;;;;;4956339;29;20020;-83
2023/06/27 07:52:35;;;;;;;2.90;1.38;;;;;;;;;;4957363;29;20051;-83
2023/06/27 07:55:01;;;;;;;4.55;1.45;;;;;;;;;;4948496;29;20027;-82
2023/06/27 07:57:26;;;;;;;2.33;1.30;;;;;;;;;;4949490;29;20091;-84
2023/06/27 07:59:51;;;;;;;6.45;1.70;;;;;;;;;;4957534;29;20072;-83
2023/06/27 08:02:17;;;;;;;2.97;1.52;;;;;;;;;;4967898;29;20054;-84
2023/06/27 08:04:43;;;;;;;5.53;1.52;;;;;;;;;;4966901;28;20520;-83
2023/06/27 08:07:09;;;;;;;3.65;1.35;;;;;;;;;;4951306;29;20095;-82
2023/06/27 08:09:40;;;;;;;3.00;1.40;;;;;;;;;;4943759;29;20095;-83
2023/06/27 08:12:06;;;;;;;2.83;1.40;;;;;;;;;;4942420;29;20024;-84
2023/06/27 08:14:32;;;;;;;2.53;1.40;;;;;;;;;;4950980;29;20031;-83
2023/06/27 08:16:57;;;;;;;1.80;1.27;;;;;;;;;;4941950;29;20099;-84
2023/06/27 08:19:22;;;;;;;3.38;1.17;;;;;;;;;;4941176;29;20506;-84
2023/06/27 08:21:48;;;;;;;1.95;1.30;;;;;;;;;;4939152;29;20395;-85
2023/06/27 08:24:13;;;;;;;4.57;1.50;;;;;;;;;;4942103;28;20057;-84
2023/06/27 08:26:39;;;;;;;2.08;1.55;;;;;;;;;;4940725;29;20034;-81
2023/06/27 08:29:04;;;;;;;5.32;1.75;;;;;;;;;;4944213;29;20041;-81
2023/06/27 08:31:30;;;;;;;2.75;1.60;;;;;;;;;;4956583;29;20086;-80
2023/06/27 08:33:55;;;;;;;6.45;1.95;;;;;;;;;;4943117;29;20442;-80
2023/06/27 08:36:20;;;;;;;4.40;1.63;;;;;;;;;;4941711;29;20026;-83
2023/06/27 08:38:46;;;;;;;5.60;1.58;;;;;;;;;;4947679;29;20042;-81
2023/06/27 08:41:13;;;;;;;2.78;1.48;;;;;;;;;;4950977;29;20115;-84
2023/06/27 08:43:39;;;;;;;5.25;1.35;;;;;;;;;;4952240;29;20027;-80
2023/06/27 08:46:08;;;;;;;4.47;1.30;;;;;;;;;;4943124;29;20385;-83
2023/06/27 08:48:37;;;;;;;10.40;1.25;;;;;;;;;;4947961;28;20024;-84
2023/06/27 08:51:04;;;;;;;1.92;1.45;;;;;;;;;;4953951;28;20039;-84
2023/06/27 08:53:30;;;;;;;6.57;1.63;;;;;;;;;;4946501;29;20131;-81
2023/06/27 08:55:56;;;;;;;7.68;1.63;;;;;;;;;;4964907;23;20040;-79
2023/06/27 08:58:25;;;;;;;1.58;1.10;;;;;;;;;;4946964;29;20050;-79
2023/06/27 09:00:53;;;;;;;3.70;1.40;;;;;;;;;;4947349;29;20524;-79
2023/06/27 09:03:19;;;;;;;4.88;1.33;;;;;;;;;;4934929;29;20077;-79
2023/06/27 09:05:47;;;;;;;4.28;1.45;;;;;;;;;;4932601;29;20103;-79
2023/06/27 09:08:13;;;;;;;8.07;1.70;;;;;;;;;;4922284;29;20020;-78
2023/06/27 09:13:29;;;;;;;4.10;1.50;;;;;;;;;;4917044;29;20075;-77
2023/06/27 09:15:55;;;;;;;4.25;1.45;;;;;;;;;;4920638;29;20032;-78
2023/06/27 09:18:20;;;;;;;2.75;1.20;;;;;;;;;;4921167;29;20040;-78
2023/06/27 09:20:46;;;;;;;2.83;1.15;;;;;;;;;;4922325;29;20063;-78
2023/06/27 09:23:11;;;;;;;2.63;1.30;;;;;;;;;;4928965;29;20117;-78
2023/06/27 09:25:37;;;;;;;3.70;1.30;;;;;;;;;;4931131;29;20469;-78
2023/06/27 09:28:18;;;;;;;4.53;1.40;;;;;;;;;;4925564;29;20609;-78
2023/06/27 09:31:06;;;;;;;3.47;1.05;;;;;;;;;;4911109;29;20047;-79
2023/06/27 09:33:40;;;;;;;5.47;1.50;;;;;;;;;;4925621;29;20023;-79
2023/06/27 09:36:05;;;;;;;5.43;1.60;;;;;;;;;;4905463;29;20479;-79
2023/06/27 09:38:33;;;;;;;6.38;1.50;;;;;;;;;;4930241;29;20079;-79
2023/06/27 09:41:06;;;;;;;4.95;1.70;;;;;;;;;;4923212;29;20100;-79
2023/06/27 09:43:35;;;;;;;4.47;1.30;;;;;;;;;;4921645;29;20020;-79
2023/06/27 09:46:02;;;;;;;4.88;1.80;;;;;;;;;;4920428;29;20040;-79
2023/06/27 09:48:31;;;;;;;2.65;1.50;;;;;;;;;;4932496;29;20078;-78
2023/06/27 09:51:00;;;;;;;6.13;1.70;;;;;;;;;;4933204;29;20023;-79
2023/06/27 09:53:29;;;;;;;2.80;1.58;;;;;;;;;;4918086;29;20034;-79
2023/06/27 09:55:59;;;;;;;3.28;1.40;;;;;;;;;;4911413;29;20035;-80
2023/06/27 09:58:31;;;;;;;7.10;1.67;;;;;;;;;;4925604;29;20028;-79
2023/06/27 10:01:06;;;;;;;2.42;1.30;;;;;;;;;;4924229;29;20058;-79
2023/06/27 10:03:33;;;;;;;5.20;1.73;;;;;;;;;;4922598;29;20084;-79
2023/06/27 10:05:59;;;;;;;4.20;1.50;;;;;;;;;;4920706;29;20188;-79
2023/06/27 10:08:25;;;;;;;4.07;1.45;;;;;;;;;;4902925;29;20088;-79
2023/06/27 10:10:50;;;;;;;2.55;1.48;;;;;;;;;;4930226;29;20042;-78
2023/06/27 10:13:25;;;;;;;4.78;1.30;;;;;;;;;;4927805;29;20020;-79
2023/06/27 10:15:50;;;;;;;4.30;1.30;;;;;;;;;;4925086;29;20148;-80
2023/06/27 10:18:16;;;;;;;2.97;1.50;;;;;;;;;;4907726;29;20028;-78
2023/06/27 10:20:42;;;;;;;8.63;1.55;;;;;;;;;;4929388;29;20035;-79
2023/06/27 10:23:08;;;;;;;5.03;1.38;;;;;;;;;;4923453;29;20040;-80
2023/06/27 10:25:34;;;;;;;1.95;1.25;;;;;;;;;;4905831;29;20020;-79
2023/06/27 10:28:08;;;;;;;3.35;1.30;;;;;;;;;;4925148;29;20525;-79
2023/06/27 10:30:53;;;;;;;1.48;1.10;;;;;;;;;;4932877;29;20047;-79
2023/06/27 10:33:20;;;;;;;4.85;1.42;;;;;;;;;;4928587;29;20055;-79
2023/06/27 10:35:51;;;;;;;4.03;1.70;;;;;;;;;;4923440;29;20040;-79
2023/06/27 10:38:19;;;;;;;4.00;1.77;;;;;;;;;;4925086;29;20034;-82
2023/06/27 10:41:00;;;;;;;1.98;1.50;;;;;;;;;;4928695;29;20032;-79
2023/06/27 10:43:51;;;;;;;2.58;1.17;;;;;;;;;;4919395;29;20036;-79
2023/06/27 10:46:26;;;;;;;4.45;1.50;;;;;;;;;;4922156;29;20039;-79
2023/06/27 10:48:58;;;;;;;3.08;1.38;;;;;;;;;;4930620;29;20060;-79
2023/06/27 10:51:43;;;;;;;3.03;1.60;;;;;;;;;;4923285;29;20036;-79
2023/06/27 10:54:09;;;;;;;4.53;1.30;;;;;;;;;;4921406;29;20043;-80
2023/06/27 10:56:51;;;;;;;3.95;1.30;;;;;;;;;;4922152;29;20032;-80
2023/06/27 10:59:18;;;;;;;3.88;1.20;;;;;;;;;;4923791;29;20099;-79
2023/06/27 11:02:06;;;;;;;1.40;1.30;;;;;;;;;;4924794;29;20036;-79
2023/06/27 11:04:41;;;;;;;1.80;0.93;;;;;;;;;;4916124;29;20028;-79
2023/06/27 11:07:07;;;;;;;5.07;1.58;;;;;;;;;;4929393;29;20039;-80
2023/06/27 11:09:35;;;;;;;4.32;1.23;;;;;;;;;;4915693;29;20032;-79
2023/06/27 11:12:11;;;;;;;6.57;1.60;;;;;;;;;;4918964;29;20025;-78
2023/06/27 11:14:42;;;;;;;5.75;1.52;;;;;;;;;;4930182;29;20024;-78
2023/06/27 11:17:08;;;;;;;4.40;1.43;;;;;;;;;;4916755;29;20040;-78
2023/06/27 11:19:34;;;;;;;3.08;1.50;;;;;;;;;;4916897;29;20390;-77
2023/06/27 11:22:10;;;;;;;3.03;1.38;;;;;;;;;;4920969;29;20031;-78
2023/06/27 11:24:35;;;;;;;1.52;1.35;;;;;;;;;;4917055;29;20391;-78
2023/06/27 11:27:10;;;;;;;4.15;1.60;;;;;;;;;;4919540;29;20051;-80
2023/06/27 11:29:35;;;;;;;3.05;1.60;;;;;;;;;;4916500;29;20103;-77
2023/06/27 11:32:01;;;;;;;5.13;1.20;;;;;;;;;;4913487;29;20106;-78
2023/06/27 11:34:27;;;;;;;5.15;1.50;;;;;;;;;;4926790;29;20027;-78
2023/06/27 11:36:54;;;;;;;2.63;1.60;;;;;;;;;;4919091;29;20111;-78
2023/06/27 11:39:19;;;;;;;1.30;1.13;;;;;;;;;;4917299;29;20031;-78
2023/06/27 11:41:45;;;;;;;7.95;1.45;;;;;;;;;;4919487;29;20121;-77
2023/06/27 11:44:15;;;;;;;2.13;1.20;;;;;;;;;;4916421;29;20032;-76
2023/06/27 11:46:52;;;;;;;5.45;1.50;;;;;;;;;;4923259;29;20028;-77
2023/06/27 11:49:21;;;;;;;3.45;1.40;;;;;;;;;;4913254;29;20697;-77
2023/06/27 11:51:47;;;;;;;3.05;1.60;;;;;;;;;;4917851;29;20051;-79
2023/06/27 11:54:16;;;;;;;1.90;1.42;;;;;;;;;;4901672;29;20028;-77
2023/06/27 11:56:42;;;;;;;3.20;1.25;;;;;;;;;;4918538;29;20828;-77
2023/06/27 11:59:07;;;;;;;5.18;1.60;;;;;;;;;;4921383;29;20092;-77
2023/06/27 12:01:40;;;;;;;4.65;1.60;;;;;;;;;;4917290;29;20391;-77
2023/06/27 12:04:12;;;;;;;4.20;1.60;;;;;;;;;;4921828;29;20036;-78
2023/06/27 12:06:38;;;;;;;6.20;1.50;;;;;;;;;;4920169;29;20034;-78
2023/06/27 12:09:07;;;;;;;5.50;1.58;;;;;;;;;;4911250;29;20032;-77
2023/06/27 12:11:34;;;;;;;5.75;1.58;;;;;;;;;;4918915;29;20039;-78
2023/06/27 12:14:00;;;;;;;7.70;1.50;;;;;;;;;;4917830;29;20044;-78
2023/06/27 12:16:32;;;;;;;6.57;1.50;;;;;;;;;;4919640;29;20490;-78
2023/06/27 12:19:08;;;;;;;1.38;1.17;;;;;;;;;;4916355;29;20079;-78
2023/06/27 12:21:34;;;;;;;1.40;1.30;;;;;;;;;;4922215;29;20209;-78
2023/06/27 12:24:00;;;;;;;2.97;1.40;;;;;;;;;;4921190;29;20106;-78
2023/06/27 12:26:25;;;;;;;2.90;1.38;;;;;;;;;;4923651;29;20495;-78
2023/06/27 12:28:55;;;;;;;4.22;1.63;;;;;;;;;;4918069;29;20028;-78
2023/06/27 12:31:20;;;;;;;3.13;1.30;;;;;;;;;;4918404;29;20024;-78
2023/06/27 12:33:46;;;;;;;2.63;1.40;;;;;;;;;;4921090;29;20088;-78
2023/06/27 12:36:14;;;;;;;5.78;1.52;;;;;;;;;;4907697;29;20118;-78
2023/06/27 12:38:39;;;;;;;6.07;2.10;;;;;;;;;;4920973;29;20027;-78
2023/06/27 12:41:05;;;;;;;7.85;1.45;;;;;;;;;;4919637;29;20494;-78
2023/06/27 12:43:30;;;;;;;9.95;2.08;;;;;;;;;;4924559;29;20059;-78
2023/06/27 12:46:02;;;;;;;2.85;1.63;;;;;;;;;;4919193;29;20120;-78
2023/06/27 12:48:28;;;;;;;3.70;1.45;;;;;;;;;;4919560;29;20455;-78
2023/06/27 12:50:53;;;;;;;5.25;1.50;;;;;;;;;;4922813;29;20075;-78
2023/06/27 12:53:18;;;;;;;6.07;1.50;;;;;;;;;;4921627;29;20024;-78
2023/06/27 12:55:44;;;;;;;4.72;1.42;;;;;;;;;;4924670;29;20047;-78
2023/06/27 12:58:10;;;;;;;5.25;1.77;;;;;;;;;;4921223;29;20067;-78
2023/06/27 13:00:37;;;;;;;3.80;1.50;;;;;;;;;;4921220;29;20043;-78
2023/06/27 13:03:06;;;;;;;4.05;1.50;;;;;;;;;;4918223;29;20040;-78
2023/06/27 13:05:32;;;;;;;1.92;1.30;;;;;;;;;;4924067;29;20401;-78
2023/06/27 13:07:58;;;;;;;5.35;1.63;;;;;;;;;;4918704;29;20140;-78
2023/06/27 13:10:25;;;;;;;6.38;1.42;;;;;;;;;;4918036;29;20038;-80
2023/06/27 13:12:51;;;;;;;5.72;1.58;;;;;;;;;;4929856;29;20031;-79
2023/06/27 13:15:17;;;;;;;2.50;1.40;;;;;;;;;;4928330;29;20102;-78
2023/06/27 13:17:43;;;;;;;3.60;1.20;;;;;;;;;;4921464;29;20067;-78
2023/06/27 13:20:09;;;;;;;4.68;1.63;;;;;;;;;;4921407;29;20024;-78
2023/06/27 13:22:35;;;;;;;3.20;1.25;;;;;;;;;;4928531;29;20045;-78
2023/06/27 13:28:09;;;;;;;3.42;1.50;;;;;;;;;;5174574;23;20050;-78
2023/06/27 13:30:35;;;;;;;3.55;1.48;;;;;;;;;;4964167;28;20034;-78
2023/06/27 13:33:00;;;;;;;3.20;1.58;;;;;;;;;;4972265;28;20058;-78
2023/06/27 13:35:25;;;;;;;2.25;1.73;;;;;;;;;;4982490;28;20022;-78
2023/06/27 13:37:52;;;;;;;5.93;1.42;;;;;;;;;;4983993;28;20388;-77
2023/06/27 13:40:17;;;;;;;3.17;1.58;;;;;;;;;;4987990;28;20045;-78
2023/06/27 13:42:43;;;;;;;1.33;1.05;;;;;;;;;;4972075;28;20026;-78
2023/06/27 13:45:09;;;;;;;2.30;1.40;;;;;;;;;;4969984;28;20460;-78
2023/06/27 13:47:34;;;;;;;4.28;1.58;;;;;;;;;;4967549;28;20026;-77
2023/06/27 13:49:59;;;;;;;4.32;1.63;;;;;;;;;;4981335;28;20129;-77
2023/06/27 13:52:24;;;;;;;1.80;1.40;;;;;;;;;;4988854;28;20101;-77
2023/06/27 13:54:50;;;;;;;2.25;1.30;;;;;;;;;;4977730;28;20031;-78
2023/06/27 13:57:15;;;;;;;3.80;1.50;;;;;;;;;;4956089;28;20062;-78
2023/06/27 13:59:41;;;;;;;7.47;1.45;;;;;;;;;;4983290;28;20352;-78
2023/06/27 14:02:06;;;;;;;1.63;1.20;;;;;;;;;;4985430;28;20030;-78
2023/06/27 14:04:32;;;;;;;2.92;1.40;;;;;;;;;;4987424;28;20026;-77
2023/06/27 14:06:58;;;;;;;5.85;1.30;;;;;;;;;;4980307;28;20036;-78
2023/06/27 14:09:24;;;;;;;1.75;1.27;;;;;;;;;;4980644;28;20027;-77
2023/06/27 14:11:50;;;;;;;3.90;1.40;;;;;;;;;;4958199;28;20039;-77
2023/06/27 14:14:16;;;;;;;4.85;1.70;;;;;;;;;;4980619;28;20022;-78
2023/06/27 14:16:41;;;;;;;2.55;1.30;;;;;;;;;;4975829;28;20026;-77
2023/06/27 14:19:07;;;;;;;3.17;1.33;;;;;;;;;;4964422;28;20042;-77
2023/06/27 14:21:36;;;;;;;2.33;1.38;;;;;;;;;;4978643;28;20505;-77
2023/06/27 14:24:03;;;;;;;5.72;1.38;;;;;;;;;;4976616;28;20046;-78
2023/06/27 14:26:29;;;;;;;2.45;1.40;;;;;;;;;;4966010;28;20068;-77
2023/06/27 14:28:54;;;;;;;3.10;1.10;;;;;;;;;;4971700;28;20470;-78
2023/06/27 14:31:19;;;;;;;2.28;1.20;;;;;;;;;;4974919;28;20035;-78
2023/06/27 14:33:44;;;;;;;5.65;1.70;;;;;;;;;;4964183;28;20027;-77
2023/06/27 14:36:10;;;;;;;2.17;1.42;;;;;;;;;;5023664;23;20189;-77
2023/06/27 14:38:35;;;;;;;2.58;1.40;;;;;;;;;;4968071;28;20042;-77
2023/06/27 14:41:00;;;;;;;3.80;1.40;;;;;;;;;;4959088;28;20027;-77
2023/06/27 14:43:26;;;;;;;2.20;1.50;;;;;;;;;;4974457;28;20027;-77
2023/06/27 14:45:52;;;;;;;3.92;1.50;;;;;;;;;;4962712;28;20134;-77
2023/06/27 14:48:19;;;;;;;2.05;1.40;;;;;;;;;;4948506;28;20107;-77